Time;durP1;ratioP1;P1;durP2;ratioP2;P2;SDS_P1;SDS_P2;PMS_P1;PMS_P2;Temp;Humidity;BMP_temperature;BMP_pressure;BME280_temperature;BME280_humidity;BME280_pressure;Samples;Min_cycle;Max_cycle;Signal;HPM_P1;HPM_P2
2022/07/10 00:00:27;;;;;;;3.42;0.30;;;19.20;76.80;;;;;;5094475;28;20103;-72
2022/07/10 00:02:53;;;;;;;3.55;0.28;;;19.20;76.20;;;;;;5094459;28;20028;-71
2022/07/10 00:05:19;;;;;;;4.40;0.52;;;19.20;76.50;;;;;;5094680;28;20050;-71
2022/07/10 00:07:46;;;;;;;6.07;0.68;;;19.20;76.60;;;;;;5094198;28;20028;-72
2022/07/10 00:10:11;;;;;;;3.88;0.40;;;19.20;76.80;;;;;;5094608;28;20020;-71
2022/07/10 00:12:37;;;;;;;3.88;0.40;;;19.20;76.90;;;;;;5094416;28;20027;-71
2022/07/10 00:15:04;;;;;;;5.50;0.75;;;19.20;77.00;;;;;;5094741;28;20031;-72
2022/07/10 00:17:33;;;;;;;5.38;0.35;;;19.10;77.30;;;;;;5094469;28;20081;-72
2022/07/10 00:19:59;;;;;;;7.78;0.50;;;19.20;77.20;;;;;;5093861;28;20027;-72
2022/07/10 00:22:25;;;;;;;2.38;0.30;;;19.20;77.70;;;;;;5093843;28;20040;-72
2022/07/10 00:24:51;;;;;;;6.72;0.35;;;19.20;78.20;;;;;;5094115;28;20027;-72
2022/07/10 00:27:18;;;;;;;2.75;0.30;;;19.20;77.60;;;;;;5093976;28;20099;-72
2022/07/10 00:29:44;;;;;;;4.78;0.40;;;19.20;77.60;;;;;;5093669;28;20103;-72
2022/07/10 00:32:10;;;;;;;4.85;0.52;;;19.30;77.70;;;;;;5093756;28;20130;-72
2022/07/10 00:34:35;;;;;;;3.42;0.30;;;19.20;77.40;;;;;;5094027;28;20111;-72
2022/07/10 00:37:02;;;;;;;5.30;0.30;;;19.20;77.40;;;;;;5093835;28;20044;-72
2022/07/10 00:39:28;;;;;;;3.63;0.45;;;19.20;77.40;;;;;;5093746;28;20332;-72
2022/07/10 00:41:53;;;;;;;3.47;0.40;;;19.20;77.40;;;;;;5093557;28;20032;-72
2022/07/10 00:44:19;;;;;;;3.47;0.52;;;19.30;77.40;;;;;;5093923;28;20051;-72
2022/07/10 00:46:45;;;;;;;5.57;0.40;;;19.30;77.20;;;;;;5093884;28;20479;-72
2022/07/10 00:49:10;;;;;;;2.55;0.30;;;19.40;77.20;;;;;;5093229;28;20453;-73
2022/07/10 00:51:37;;;;;;;3.17;0.30;;;19.40;77.10;;;;;;5096155;28;20068;-72
2022/07/10 00:54:04;;;;;;;3.33;0.47;;;19.40;77.00;;;;;;5093965;28;20024;-72
2022/07/10 00:56:30;;;;;;;5.45;0.43;;;19.40;76.90;;;;;;5093783;28;20054;-72
2022/07/10 00:58:55;;;;;;;3.55;0.40;;;19.40;76.80;;;;;;5093566;28;20471;-72
2022/07/10 01:01:24;;;;;;;6.00;0.70;;;19.50;76.70;;;;;;5093401;28;20039;-73
2022/07/10 01:03:50;;;;;;;3.80;0.35;;;19.50;76.50;;;;;;5093454;28;20482;-72
2022/07/10 01:06:16;;;;;;;5.65;0.57;;;19.40;76.50;;;;;;5093744;28;20028;-72
2022/07/10 01:08:43;;;;;;;4.97;0.50;;;19.40;76.80;;;;;;5093149;28;20413;-72
2022/07/10 01:11:09;;;;;;;6.47;0.60;;;19.30;76.80;;;;;;5093350;28;20024;-72
2022/07/10 01:13:36;;;;;;;4.40;0.32;;;19.20;77.50;;;;;;5093638;28;20020;-72
2022/07/10 01:16:02;;;;;;;2.92;0.28;;;19.20;77.20;;;;;;5093282;28;20134;-72
2022/07/10 01:18:28;;;;;;;2.42;0.20;;;19.20;77.50;;;;;;5093600;28;20063;-72
2022/07/10 01:20:55;;;;;;;4.47;0.55;;;19.30;77.50;;;;;;5099352;28;20463;-72
2022/07/10 01:23:21;;;;;;;3.20;0.30;;;19.30;77.30;;;;;;5100124;28;20115;-72
2022/07/10 01:25:48;;;;;;;3.67;0.40;;;19.30;77.40;;;;;;5099856;28;20024;-72
2022/07/10 01:28:13;;;;;;;4.25;0.40;;;19.30;77.50;;;;;;5100330;28;20024;-73
2022/07/10 01:30:39;;;;;;;3.15;0.43;;;19.30;77.50;;;;;;5099798;28;20016;-72
2022/07/10 01:33:04;;;;;;;2.53;0.50;;;19.40;77.40;;;;;;5100202;28;20039;-72
2022/07/10 01:35:30;;;;;;;5.38;0.50;;;19.30;77.30;;;;;;5099734;28;20020;-72
2022/07/10 01:37:56;;;;;;;2.85;0.25;;;19.30;77.00;;;;;;5100059;28;20024;-72
2022/07/10 01:40:21;;;;;;;5.82;0.57;;;19.20;77.20;;;;;;5099718;28;20020;-72
2022/07/10 01:42:47;;;;;;;3.92;0.40;;;19.20;77.30;;;;;;5099881;28;20032;-72
2022/07/10 01:45:12;;;;;;;4.70;0.30;;;19.20;77.50;;;;;;5100169;28;20374;-72
2022/07/10 01:47:38;;;;;;;2.55;0.32;;;19.10;77.40;;;;;;5102079;28;20626;-73
2022/07/10 01:50:05;;;;;;;3.58;0.50;;;19.10;77.50;;;;;;5099647;28;20052;-72
2022/07/10 01:52:31;;;;;;;3.30;0.40;;;19.20;77.50;;;;;;5099652;28;20024;-72
2022/07/10 01:54:57;;;;;;;4.30;0.70;;;19.20;77.40;;;;;;5099858;28;20073;-72
2022/07/10 01:57:22;;;;;;;5.15;0.50;;;19.20;77.30;;;;;;5099628;28;20498;-72
2022/07/10 01:59:48;;;;;;;7.63;0.60;;;19.20;77.30;;;;;;5099955;28;20035;-72
2022/07/10 02:02:13;;;;;;;5.25;0.45;;;19.10;77.40;;;;;;5099836;28;20544;-72
2022/07/10 02:04:42;;;;;;;3.65;0.30;;;19.10;77.40;;;;;;5099817;28;20051;-72
2022/07/10 02:07:08;;;;;;;4.32;0.47;;;19.10;77.50;;;;;;5099769;28;20104;-72
2022/07/10 02:09:34;;;;;;;3.05;0.35;;;19.00;77.60;;;;;;5099757;28;20480;-72
2022/07/10 02:12:00;;;;;;;3.83;0.47;;;19.10;77.90;;;;;;5099877;28;20120;-72
2022/07/10 02:14:25;;;;;;;3.55;0.40;;;19.10;77.80;;;;;;5099490;28;20074;-72
2022/07/10 02:16:51;;;;;;;3.38;0.30;;;19.10;77.70;;;;;;5099714;28;20028;-72
2022/07/10 02:19:17;;;;;;;2.67;0.52;;;19.10;77.80;;;;;;5099532;28;20052;-72
2022/07/10 02:21:43;;;;;;;4.18;0.45;;;19.00;77.70;;;;;;5099788;28;20043;-72
2022/07/10 02:24:09;;;;;;;3.00;0.68;;;19.00;77.70;;;;;;5099496;28;20020;-72
2022/07/10 02:26:34;;;;;;;5.55;0.70;;;18.90;77.60;;;;;;5099470;28;20068;-72
2022/07/10 02:29:00;;;;;;;3.47;0.52;;;19.00;77.90;;;;;;5099350;28;20472;-72
2022/07/10 02:31:25;;;;;;;5.47;0.63;;;18.90;77.80;;;;;;5097467;28;20375;-71
2022/07/10 02:33:51;;;;;;;3.40;0.40;;;18.90;77.80;;;;;;5096132;28;20024;-71
2022/07/10 02:36:17;;;;;;;3.75;0.40;;;18.90;77.90;;;;;;5096445;28;20093;-71
2022/07/10 02:38:42;;;;;;;3.65;0.47;;;18.80;78.10;;;;;;5096177;28;20024;-71
2022/07/10 02:41:08;;;;;;;5.50;0.80;;;18.80;78.30;;;;;;5095949;28;20023;-71
2022/07/10 02:43:34;;;;;;;2.72;0.40;;;18.80;78.50;;;;;;5096881;28;20090;-71
2022/07/10 02:45:59;;;;;;;2.58;0.50;;;18.80;78.70;;;;;;5096460;28;20012;-71
2022/07/10 02:48:25;;;;;;;6.40;0.68;;;18.80;79.10;;;;;;5095713;28;20028;-72
2022/07/10 02:50:50;;;;;;;6.55;0.70;;;18.80;79.30;;;;;;5095766;28;20402;-71
2022/07/10 02:53:16;;;;;;;4.03;0.50;;;18.70;79.30;;;;;;5095864;28;20414;-71
2022/07/10 02:55:42;;;;;;;4.18;0.57;;;18.70;79.60;;;;;;5095647;28;20009;-71
2022/07/10 02:58:09;;;;;;;3.85;0.40;;;18.60;79.80;;;;;;5095649;28;20053;-71
2022/07/10 03:00:35;;;;;;;5.43;0.63;;;18.60;80.00;;;;;;5095852;28;20074;-72
2022/07/10 03:03:01;;;;;;;4.63;0.60;;;18.50;80.40;;;;;;5095964;28;20039;-71
2022/07/10 03:05:26;;;;;;;5.07;0.50;;;18.50;80.70;;;;;;5095596;28;20016;-71
2022/07/10 03:07:52;;;;;;;3.83;0.60;;;18.40;81.00;;;;;;5095573;28;20060;-71
2022/07/10 03:10:18;;;;;;;3.80;0.45;;;18.40;80.90;;;;;;5095602;28;20023;-71
2022/07/10 03:12:43;;;;;;;4.30;0.40;;;18.40;81.20;;;;;;5095639;28;20046;-71
2022/07/10 03:15:09;;;;;;;5.50;0.50;;;18.40;81.10;;;;;;5095691;28;20077;-71
2022/07/10 03:17:35;;;;;;;6.70;0.65;;;18.40;81.40;;;;;;5095078;28;20475;-71
2022/07/10 03:20:01;;;;;;;4.75;0.60;;;18.40;81.40;;;;;;5095320;28;20063;-71
2022/07/10 03:22:28;;;;;;;7.88;0.70;;;18.30;81.50;;;;;;5095437;28;20073;-71
2022/07/10 03:24:54;;;;;;;5.75;0.70;;;18.30;81.80;;;;;;5095285;28;20035;-71
2022/07/10 03:27:19;;;;;;;6.32;0.60;;;18.30;81.70;;;;;;5095334;28;20073;-71
2022/07/10 03:29:46;;;;;;;5.15;0.60;;;18.30;81.70;;;;;;5095064;28;20463;-71
2022/07/10 03:32:12;;;;;;;3.97;0.55;;;18.30;81.70;;;;;;5095408;28;20024;-71
2022/07/10 03:34:37;;;;;;;2.13;0.40;;;18.20;81.80;;;;;;5095046;28;20051;-72
2022/07/10 03:37:03;;;;;;;3.25;0.50;;;18.30;82.10;;;;;;5095110;28;20498;-72
2022/07/10 03:39:29;;;;;;;4.63;0.50;;;18.20;82.00;;;;;;5095575;28;20016;-72
2022/07/10 03:41:55;;;;;;;3.28;0.65;;;18.30;82.00;;;;;;5094885;28;20035;-72
2022/07/10 03:44:20;;;;;;;3.92;0.70;;;18.20;82.10;;;;;;5094865;28;20028;-72
2022/07/10 03:46:46;;;;;;;3.95;0.40;;;18.30;82.30;;;;;;5094758;28;20029;-72
2022/07/10 03:49:11;;;;;;;5.07;0.50;;;18.30;82.40;;;;;;5094734;28;20169;-71
2022/07/10 03:51:37;;;;;;;7.25;0.70;;;18.30;82.60;;;;;;5094713;28;20020;-71
2022/07/10 03:54:03;;;;;;;4.32;0.40;;;18.20;82.60;;;;;;5094813;28;20467;-72
2022/07/10 03:59:12;;;;;;;6.10;0.80;;;18.30;82.90;;;;;;5094638;28;20412;-72
2022/07/10 04:01:38;;;;;;;4.90;0.60;;;18.30;83.10;;;;;;5094552;28;20041;-72
2022/07/10 04:04:04;;;;;;;3.33;0.68;;;18.20;83.20;;;;;;5094515;28;20081;-72
2022/07/10 04:06:29;;;;;;;3.70;0.40;;;18.20;83.30;;;;;;5094500;28;20495;-72
2022/07/10 04:08:55;;;;;;;4.45;0.55;;;18.20;83.50;;;;;;5094306;28;20020;-72
2022/07/10 04:11:21;;;;;;;5.43;0.68;;;18.20;83.90;;;;;;5094574;28;20476;-72
2022/07/10 04:13:46;;;;;;;8.38;1.50;;;18.10;83.80;;;;;;5094531;28;20387;-72
2022/07/10 04:16:13;;;;;;;5.50;0.60;;;18.20;83.90;;;;;;5094208;28;20548;-72
2022/07/10 04:18:41;;;;;;;5.45;0.55;;;18.20;83.80;;;;;;5094334;28;20028;-72
2022/07/10 04:21:07;;;;;;;8.25;0.80;;;18.10;83.90;;;;;;5094280;28;20020;-72
2022/07/10 04:23:35;;;;;;;7.55;0.68;;;18.10;83.90;;;;;;5094127;28;20077;-72
2022/07/10 04:26:01;;;;;;;6.93;0.43;;;18.10;84.10;;;;;;5094055;28;20427;-72
2022/07/10 04:28:27;;;;;;;5.22;0.88;;;18.10;84.20;;;;;;5093808;28;20059;-72
2022/07/10 04:30:53;;;;;;;3.97;0.55;;;18.20;84.20;;;;;;5094169;28;20080;-72
2022/07/10 04:33:18;;;;;;;4.45;0.50;;;18.10;84.80;;;;;;5093952;28;20028;-72
2022/07/10 04:35:44;;;;;;;6.65;0.55;;;18.20;84.20;;;;;;5094972;28;20032;-72
2022/07/10 04:38:10;;;;;;;5.78;0.40;;;18.20;84.20;;;;;;5094383;28;20027;-72
2022/07/10 04:40:35;;;;;;;4.32;0.52;;;18.20;84.20;;;;;;5094151;28;20107;-72
2022/07/10 04:43:01;;;;;;;3.78;0.47;;;18.20;84.40;;;;;;5093896;28;20032;-72
2022/07/10 04:45:26;;;;;;;4.72;0.50;;;18.10;84.50;;;;;;5093892;28;20180;-72
2022/07/10 04:47:52;;;;;;;7.25;0.70;;;18.10;84.60;;;;;;5093615;28;20035;-72
2022/07/10 04:50:18;;;;;;;5.53;0.50;;;18.10;84.50;;;;;;5093636;28;20052;-72
2022/07/10 04:52:43;;;;;;;4.35;0.40;;;18.10;84.60;;;;;;5093335;28;20556;-71
2022/07/10 04:55:10;;;;;;;4.75;0.40;;;18.10;84.70;;;;;;5093151;28;20099;-71
2022/07/10 04:57:37;;;;;;;6.00;0.60;;;18.10;84.60;;;;;;5093798;28;20024;-71
2022/07/10 05:00:03;;;;;;;3.20;0.60;;;18.10;84.60;;;;;;5093791;28;20126;-72
2022/07/10 05:02:29;;;;;;;4.25;0.50;;;18.10;84.50;;;;;;5093432;28;20082;-71
2022/07/10 05:04:54;;;;;;;5.47;0.45;;;18.10;84.60;;;;;;5093360;28;20020;-71
2022/07/10 05:07:20;;;;;;;6.97;1.08;;;18.10;84.80;;;;;;5093207;28;20026;-71
2022/07/10 05:09:45;;;;;;;5.97;0.80;;;18.10;84.80;;;;;;5093633;28;20463;-71
2022/07/10 05:12:11;;;;;;;4.63;0.30;;;18.10;84.80;;;;;;5093200;28;20376;-71
2022/07/10 05:14:36;;;;;;;6.53;0.90;;;18.10;84.80;;;;;;5093183;28;20024;-71
2022/07/10 05:17:02;;;;;;;6.88;0.50;;;18.10;84.80;;;;;;5093007;28;20020;-71
2022/07/10 05:19:28;;;;;;;6.68;1.52;;;18.10;84.90;;;;;;5093139;28;20057;-71
2022/07/10 05:21:55;;;;;;;5.13;0.77;;;18.10;84.80;;;;;;5093250;28;20044;-71
2022/07/10 05:24:21;;;;;;;5.90;0.40;;;18.10;85.60;;;;;;5093315;28;20020;-71
2022/07/10 05:26:46;;;;;;;5.53;0.80;;;18.10;85.20;;;;;;5093414;28;20363;-72
2022/07/10 05:29:12;;;;;;;4.38;0.50;;;18.00;85.50;;;;;;5093218;28;20025;-71
2022/07/10 05:31:38;;;;;;;7.35;0.60;;;18.00;85.70;;;;;;5093719;28;20066;-69
2022/07/10 05:34:04;;;;;;;4.68;0.57;;;18.00;85.90;;;;;;5093980;28;20027;-71
2022/07/10 05:36:29;;;;;;;4.68;0.52;;;18.00;86.00;;;;;;5093058;28;20055;-71
2022/07/10 05:38:55;;;;;;;4.78;0.50;;;18.00;86.20;;;;;;5092947;28;20024;-71
2022/07/10 05:41:20;;;;;;;2.78;0.38;;;18.10;86.30;;;;;;5093120;28;20039;-71
2022/07/10 05:43:46;;;;;;;5.38;0.55;;;18.10;86.30;;;;;;5092716;28;20104;-71
2022/07/10 05:46:12;;;;;;;4.75;0.63;;;18.10;86.20;;;;;;5092873;28;20024;-71
2022/07/10 05:48:38;;;;;;;4.78;0.60;;;18.10;86.30;;;;;;5092860;28;20050;-71
2022/07/10 05:51:04;;;;;;;4.90;0.70;;;18.20;86.30;;;;;;5092874;28;20067;-72
2022/07/10 05:53:29;;;;;;;9.98;0.70;;;18.20;86.30;;;;;;5092878;28;20052;-71
2022/07/10 05:55:59;;;;;;;6.28;0.60;;;18.10;86.50;;;;;;5092583;28;20102;-71
2022/07/10 05:58:25;;;;;;;3.92;0.40;;;18.10;86.70;;;;;;5093165;28;20067;-71
2022/07/10 06:00:51;;;;;;;6.53;0.70;;;18.00;87.00;;;;;;5092671;28;20024;-70
2022/07/10 06:03:17;;;;;;;7.22;0.70;;;18.00;87.40;;;;;;5092810;28;20070;-71
2022/07/10 06:05:42;;;;;;;8.73;1.67;;;17.90;87.70;;;;;;5093741;28;20058;-71
2022/07/10 06:08:10;;;;;;;6.60;0.57;;;18.00;87.90;;;;;;5096539;28;20020;-71
2022/07/10 06:10:35;;;;;;;6.30;0.70;;;18.10;87.80;;;;;;5096750;28;20028;-71
2022/07/10 06:13:01;;;;;;;7.22;0.70;;;18.10;87.80;;;;;;5096773;28;20103;-71
2022/07/10 06:15:26;;;;;;;5.95;0.60;;;18.00;89.70;;;;;;5096099;28;20073;-71
2022/07/10 06:17:52;;;;;;;6.93;0.95;;;18.00;89.80;;;;;;5096826;28;20024;-71
2022/07/10 06:20:17;;;;;;;6.70;0.70;;;17.90;90.10;;;;;;5096712;28;20024;-72
2022/07/10 06:22:43;;;;;;;6.35;0.73;;;18.00;90.30;;;;;;5096072;28;20044;-70
2022/07/10 06:25:09;;;;;;;4.30;0.50;;;17.90;90.60;;;;;;5096645;28;20024;-71
2022/07/10 06:27:35;;;;;;;4.53;0.80;;;17.90;90.70;;;;;;5096639;28;20479;-70
2022/07/10 06:30:01;;;;;;;8.27;0.52;;;18.00;90.80;;;;;;5096324;28;20027;-70
2022/07/10 06:32:27;;;;;;;6.93;0.40;;;18.00;90.70;;;;;;5096117;28;20097;-71
2022/07/10 06:34:53;;;;;;;5.30;0.43;;;18.10;90.70;;;;;;5096215;28;20363;-70
2022/07/10 06:37:19;;;;;;;8.02;1.10;;;18.10;90.70;;;;;;5096156;28;20077;-71
2022/07/10 06:39:49;;;;;;;10.57;0.82;;;18.20;90.60;;;;;;5096349;28;20024;-71
2022/07/10 06:42:15;;;;;;;12.38;1.23;;;18.20;91.00;;;;;;5095860;28;20058;-71
2022/07/10 06:44:42;;;;;;;3.78;0.47;;;18.10;91.40;;;;;;5096147;28;20031;-71
2022/07/10 06:49:54;;;;;;;8.40;1.15;;;18.10;92.10;;;;;;5096051;28;20055;-71
2022/07/10 06:52:19;;;;;;;5.43;0.80;;;18.20;92.20;;;;;;5096186;28;20070;-71
2022/07/10 06:54:45;;;;;;;6.28;0.73;;;18.20;92.40;;;;;;5095858;28;20020;-71
2022/07/10 06:57:12;;;;;;;6.38;0.60;;;18.20;92.50;;;;;;5095921;28;20027;-71
2022/07/10 06:59:37;;;;;;;8.35;0.75;;;18.20;92.80;;;;;;5095699;28;20025;-71
2022/07/10 07:02:04;;;;;;;6.93;0.70;;;18.20;93.00;;;;;;5095899;28;20081;-71
2022/07/10 07:04:30;;;;;;;6.78;1.15;;;18.20;93.20;;;;;;5095675;28;20379;-71
2022/07/10 07:06:55;;;;;;;8.98;1.17;;;18.10;93.70;;;;;;5095370;28;20031;-71
2022/07/10 07:09:21;;;;;;;8.52;0.75;;;18.10;93.80;;;;;;5095708;28;20026;-71
2022/07/10 07:11:47;;;;;;;7.00;0.70;;;18.10;94.00;;;;;;5095609;28;20459;-71
2022/07/10 07:14:13;;;;;;;9.35;1.17;;;18.10;94.10;;;;;;5095463;28;20194;-71
2022/07/10 07:16:41;;;;;;;6.60;0.80;;;18.10;94.20;;;;;;5095257;28;20081;-71
2022/07/10 07:19:09;;;;;;;6.00;1.00;;;18.10;94.50;;;;;;5095330;28;20059;-71
2022/07/10 07:24:19;;;;;;;4.68;0.90;;;18.10;94.70;;;;;;5097857;28;20103;-71
2022/07/10 07:26:49;;;;;;;6.47;0.77;;;18.00;94.90;;;;;;5095200;28;20478;-71
2022/07/10 07:29:15;;;;;;;4.65;0.65;;;18.00;95.00;;;;;;5095396;28;20028;-71
2022/07/10 07:31:41;;;;;;;6.07;0.90;;;18.00;95.10;;;;;;5095112;28;20032;-71
2022/07/10 07:34:07;;;;;;;4.47;0.50;;;18.10;95.40;;;;;;5094807;28;20078;-72
2022/07/10 07:36:32;;;;;;;4.60;0.80;;;18.10;95.20;;;;;;5095141;28;20024;-72
2022/07/10 07:38:58;;;;;;;7.10;1.08;;;18.20;95.50;;;;;;5094962;28;20054;-72
2022/07/10 07:41:24;;;;;;;6.80;0.88;;;18.10;95.60;;;;;;5094609;28;20070;-72
2022/07/10 07:43:50;;;;;;;6.32;0.80;;;18.10;95.80;;;;;;5095126;28;20360;-72
2022/07/10 07:46:16;;;;;;;7.03;1.17;;;18.20;95.90;;;;;;5095101;28;20524;-72
2022/07/10 07:48:42;;;;;;;4.97;0.80;;;18.20;96.00;;;;;;5094405;28;20383;-72
2022/07/10 07:51:07;;;;;;;7.20;1.00;;;18.20;96.00;;;;;;5094993;28;20036;-72
2022/07/10 07:53:33;;;;;;;8.15;1.17;;;18.20;96.20;;;;;;5094439;28;20085;-72
2022/07/10 07:55:59;;;;;;;6.43;0.90;;;18.20;96.30;;;;;;5094907;28;20038;-72
2022/07/10 07:58:24;;;;;;;6.40;0.82;;;18.10;96.30;;;;;;5094888;28;20028;-71
2022/07/10 08:00:50;;;;;;;5.25;1.05;;;18.20;96.70;;;;;;5094815;28;20438;-72
2022/07/10 08:03:16;;;;;;;9.13;2.08;;;18.10;96.50;;;;;;5094627;28;20024;-72
2022/07/10 08:05:42;;;;;;;9.75;1.13;;;18.10;96.60;;;;;;5094379;28;20020;-72
2022/07/10 08:08:09;;;;;;;7.72;1.58;;;18.00;96.80;;;;;;5094689;28;20024;-72
2022/07/10 08:10:36;;;;;;;7.97;1.30;;;18.00;96.90;;;;;;5094796;28;20024;-72
2022/07/10 08:13:03;;;;;;;6.22;1.17;;;17.90;97.20;;;;;;5094511;28;20027;-72
2022/07/10 08:15:30;;;;;;;9.10;1.02;;;17.80;97.40;;;;;;5094361;28;20031;-72
2022/07/10 08:17:57;;;;;;;7.20;0.93;;;17.80;97.60;;;;;;5095311;28;20051;-72
2022/07/10 08:20:24;;;;;;;9.95;1.23;;;17.80;97.80;;;;;;5096174;28;20548;-72
2022/07/10 08:22:51;;;;;;;9.52;0.90;;;17.90;97.70;;;;;;5094464;28;20383;-72
2022/07/10 08:25:16;;;;;;;7.22;0.80;;;17.90;97.40;;;;;;5093836;28;20020;-72
2022/07/10 08:27:42;;;;;;;7.55;0.98;;;17.90;97.40;;;;;;5094274;28;20098;-72
2022/07/10 08:30:09;;;;;;;8.32;0.93;;;18.00;97.40;;;;;;5093856;28;20078;-72
2022/07/10 08:32:36;;;;;;;8.68;0.60;;;18.00;97.50;;;;;;5094357;28;20089;-72
2022/07/10 08:35:02;;;;;;;4.45;0.60;;;18.00;97.50;;;;;;5094054;28;20054;-71
2022/07/10 08:37:28;;;;;;;6.25;0.82;;;18.00;97.40;;;;;;5094150;28;20028;-70
2022/07/10 08:39:54;;;;;;;6.20;0.80;;;18.00;97.60;;;;;;5093722;28;20028;-71
2022/07/10 08:42:20;;;;;;;10.23;1.23;;;18.10;97.70;;;;;;5094074;28;20032;-71
2022/07/10 08:44:46;;;;;;;4.13;0.80;;;18.10;97.70;;;;;;5093834;28;20020;-72
2022/07/10 08:47:13;;;;;;;5.32;1.25;;;18.10;97.60;;;;;;5093892;28;20020;-71
2022/07/10 08:49:45;;;;;;;4.93;0.68;;;18.20;97.50;;;;;;5093304;28;20085;-72
2022/07/10 08:52:33;;;;;;;8.25;0.80;;;18.20;97.20;;;;;;5093318;28;20551;-72
2022/07/10 08:54:59;;;;;;;6.45;0.85;;;18.30;97.50;;;;;;5093506;28;20035;-71
2022/07/10 08:57:26;;;;;;;4.82;0.47;;;18.40;97.40;;;;;;5093710;28;20027;-72
2022/07/10 08:59:53;;;;;;;6.32;0.95;;;18.50;97.30;;;;;;5093458;28;20020;-72
2022/07/10 09:02:19;;;;;;;6.28;0.75;;;18.50;97.40;;;;;;5093272;28;20035;-72
2022/07/10 09:04:45;;;;;;;6.47;1.15;;;18.50;97.10;;;;;;5093285;28;20020;-72
2022/07/10 09:07:11;;;;;;;5.00;0.90;;;18.60;96.70;;;;;;5093481;28;20024;-72
2022/07/10 09:09:56;;;;;;;4.25;0.80;;;18.70;96.40;;;;;;5093373;28;20073;-72
2022/07/10 09:12:22;;;;;;;6.82;0.77;;;19.00;96.50;;;;;;5093145;28;20121;-72
2022/07/10 09:14:49;;;;;;;6.22;0.90;;;19.20;96.30;;;;;;5093303;28;20050;-72
2022/07/10 09:17:16;;;;;;;6.35;0.50;;;19.30;95.40;;;;;;5096154;28;20028;-72
2022/07/10 09:19:42;;;;;;;5.97;0.60;;;19.30;95.10;;;;;;5093452;28;20024;-72
2022/07/10 09:22:10;;;;;;;5.93;0.60;;;19.30;94.60;;;;;;5093121;28;20062;-72
2022/07/10 09:24:40;;;;;;;8.10;0.50;;;19.30;93.70;;;;;;5092872;28;20099;-72
2022/07/10 09:27:07;;;;;;;3.78;0.50;;;19.30;93.90;;;;;;5093195;28;20158;-72
2022/07/10 09:29:43;;;;;;;4.85;0.50;;;19.40;94.10;;;;;;5093357;28;20103;-72
2022/07/10 09:32:09;;;;;;;7.60;0.98;;;19.40;93.70;;;;;;5093330;28;20028;-72
2022/07/10 09:34:41;;;;;;;2.55;0.50;;;19.50;93.40;;;;;;5093086;28;20022;-72
2022/07/10 09:37:26;;;;;;;2.55;0.40;;;19.50;93.50;;;;;;5092708;28;20028;-72
2022/07/10 09:40:05;;;;;;;3.53;0.50;;;19.60;93.30;;;;;;5093203;28;20029;-72
2022/07/10 09:42:32;;;;;;;4.93;0.80;;;19.70;93.40;;;;;;5096870;28;20127;-72
2022/07/10 09:45:12;;;;;;;3.67;0.40;;;19.70;92.90;;;;;;5096835;28;20359;-72
2022/07/10 09:47:39;;;;;;;4.32;0.50;;;19.70;92.20;;;;;;5096900;28;20031;-72
2022/07/10 09:50:24;;;;;;;3.60;0.30;;;19.80;92.20;;;;;;5096856;28;20448;-72
2022/07/10 09:52:54;;;;;;;5.30;0.40;;;19.90;92.10;;;;;;5096755;28;20490;-72
2022/07/10 09:55:22;;;;;;;3.35;0.90;;;19.90;91.10;;;;;;5097031;28;20122;-72
2022/07/10 09:58:08;;;;;;;5.15;0.40;;;19.90;91.30;;;;;;5096844;28;20017;-72
2022/07/10 10:00:39;;;;;;;3.35;0.40;;;20.00;91.30;;;;;;5096936;28;20383;-71
2022/07/10 10:03:07;;;;;;;3.65;0.50;;;20.00;91.20;;;;;;5096348;28;20024;-71
2022/07/10 10:05:54;;;;;;;3.08;0.30;;;19.90;90.90;;;;;;5096899;28;20031;-71
2022/07/10 10:08:30;;;;;;;4.18;0.50;;;19.80;90.80;;;;;;5096723;28;20095;-72
2022/07/10 10:11:00;;;;;;;4.00;0.70;;;19.90;90.90;;;;;;5097578;28;20031;-71
2022/07/10 10:13:27;;;;;;;4.38;0.60;;;19.80;91.00;;;;;;5099365;28;20028;-71
2022/07/10 10:15:55;;;;;;;3.67;0.45;;;19.80;91.10;;;;;;5096726;28;20020;-71
2022/07/10 10:18:22;;;;;;;1.90;0.40;;;20.00;91.60;;;;;;5096255;28;20105;-72
2022/07/10 10:20:50;;;;;;;5.15;0.40;;;20.40;90.90;;;;;;5095996;28;20032;-72
2022/07/10 10:23:20;;;;;;;3.97;0.35;;;20.60;90.40;;;;;;5096469;28;20036;-72
2022/07/10 10:25:47;;;;;;;3.13;0.50;;;20.70;89.70;;;;;;5096698;28;20081;-72
2022/07/10 10:28:15;;;;;;;5.07;0.40;;;20.90;89.10;;;;;;5096019;28;20024;-71
2022/07/10 10:30:43;;;;;;;3.22;0.40;;;20.90;88.30;;;;;;5095806;28;20055;-71
2022/07/10 10:33:32;;;;;;;2.42;0.30;;;20.80;86.90;;;;;;5095842;28;20028;-73
2022/07/10 10:35:59;;;;;;;3.63;0.40;;;20.80;87.00;;;;;;5086158;28;20058;-72
2022/07/10 10:38:51;;;;;;;4.82;0.47;;;20.90;87.70;;;;;;5093809;28;20110;-71
2022/07/10 10:41:31;;;;;;;2.22;0.22;;;21.00;88.60;;;;;;5094198;28;20028;-71
2022/07/10 10:44:11;;;;;;;2.67;0.50;;;21.10;87.40;;;;;;5094667;28;20016;-71
2022/07/10 10:46:59;;;;;;;3.25;0.32;;;21.10;86.30;;;;;;5096149;28;20028;-71
2022/07/10 10:49:25;;;;;;;3.95;0.40;;;21.10;86.40;;;;;;5095747;28;20048;-78
2022/07/10 10:52:04;;;;;;;4.32;0.30;;;21.00;85.80;;;;;;5094665;28;20034;-77
2022/07/10 10:54:30;;;;;;;1.80;0.30;;;20.90;85.50;;;;;;5094502;28;20073;-77
2022/07/10 10:57:16;;;;;;;3.95;0.35;;;20.90;85.20;;;;;;5095387;28;20035;-77
2022/07/10 10:59:53;;;;;;;1.95;0.20;;;20.80;85.10;;;;;;5095911;28;20032;-77
2022/07/10 11:02:29;;;;;;;2.75;0.35;;;20.70;85.40;;;;;;5095679;28;20080;-77
2022/07/10 11:07:59;;;;;;;3.50;0.30;;;20.70;85.30;;;;;;5095488;28;20364;-76
2022/07/10 11:10:32;;;;;;;3.78;0.63;;;20.60;85.90;;;;;;5096895;28;20020;-77
2022/07/10 11:13:19;;;;;;;2.08;0.65;;;20.50;85.50;;;;;;5095423;28;20017;-77
2022/07/10 11:15:52;;;;;;;2.60;0.38;;;20.60;86.30;;;;;;5095266;28;20038;-76
2022/07/10 11:18:28;;;;;;;2.17;0.13;;;20.70;85.50;;;;;;5095576;28;20024;-77
2022/07/10 11:20:54;;;;;;;5.35;0.40;;;20.80;86.00;;;;;;5095444;28;20505;-77
2022/07/10 11:23:55;;;;;;;3.15;0.40;;;20.90;86.10;;;;;;5095328;28;20036;-77
2022/07/10 11:26:36;;;;;;;1.77;0.20;;;20.90;85.50;;;;;;5095057;28;20027;-77
2022/07/10 11:29:07;;;;;;;0.93;0.20;;;21.00;85.30;;;;;;5095200;28;20020;-77
2022/07/10 11:31:38;;;;;;;3.28;0.38;;;21.00;85.30;;;;;;5095280;28;20039;-77
2022/07/10 11:34:04;;;;;;;3.95;0.35;;;21.00;85.30;;;;;;5095242;28;20069;-77
2022/07/10 11:36:31;;;;;;;2.08;0.22;;;21.00;85.40;;;;;;5094886;28;20030;-78
2022/07/10 11:39:02;;;;;;;1.17;0.25;;;21.00;85.20;;;;;;5094702;28;20055;-77
2022/07/10 11:41:28;;;;;;;3.10;0.43;;;21.00;85.60;;;;;;5094853;28;20032;-77
2022/07/10 11:44:03;;;;;;;2.88;0.30;;;21.00;85.60;;;;;;5095010;28;20371;-77
2022/07/10 11:46:31;;;;;;;3.65;0.30;;;21.00;85.70;;;;;;5094752;28;20437;-77
2022/07/10 11:48:58;;;;;;;3.08;0.30;;;21.00;85.40;;;;;;5094468;28;20036;-77
2022/07/10 11:51:31;;;;;;;1.45;0.30;;;20.90;85.40;;;;;;5094431;28;20032;-77
2022/07/10 11:54:04;;;;;;;2.53;0.40;;;20.80;85.40;;;;;;5094635;28;20024;-77
2022/07/10 11:56:33;;;;;;;2.30;0.47;;;20.80;86.00;;;;;;5094332;28;20475;-76
2022/07/10 11:59:03;;;;;;;2.67;0.25;;;20.80;87.00;;;;;;5094796;28;20039;-77
2022/07/10 12:01:32;;;;;;;2.22;0.60;;;21.00;87.30;;;;;;5094608;28;20177;-77
2022/07/10 12:04:03;;;;;;;3.75;0.50;;;21.20;85.80;;;;;;5094372;28;20020;-77
2022/07/10 12:06:31;;;;;;;1.75;0.38;;;21.20;84.70;;;;;;5095473;28;20035;-77
2022/07/10 12:09:05;;;;;;;1.17;0.20;;;21.20;84.80;;;;;;5094097;28;20020;-77
2022/07/10 12:11:31;;;;;;;3.03;0.43;;;21.30;85.00;;;;;;5094375;28;20023;-77
2022/07/10 12:14:18;;;;;;;3.15;0.30;;;21.20;84.40;;;;;;5094180;28;20101;-77
2022/07/10 12:16:49;;;;;;;2.67;0.35;;;21.20;84.40;;;;;;5094179;28;20351;-77
2022/07/10 12:19:17;;;;;;;4.32;0.32;;;21.20;84.40;;;;;;5094339;28;20024;-78
2022/07/10 12:21:44;;;;;;;2.58;0.20;;;21.20;84.70;;;;;;5094029;28;20335;-78
2022/07/10 12:24:11;;;;;;;2.22;0.20;;;21.20;84.20;;;;;;5093815;28;20360;-78
2022/07/10 12:26:44;;;;;;;2.85;0.25;;;21.10;83.50;;;;;;5094271;28;20095;-78
2022/07/10 12:29:29;;;;;;;1.90;0.40;;;21.00;83.90;;;;;;5094176;28;20383;-78
2022/07/10 12:31:57;;;;;;;2.13;0.30;;;21.00;83.90;;;;;;5093918;28;20023;-78
2022/07/10 12:34:39;;;;;;;2.33;0.45;;;21.00;84.00;;;;;;5093764;28;20429;-78
2022/07/10 12:37:12;;;;;;;3.30;0.38;;;20.90;84.40;;;;;;5094077;28;20031;-77
2022/07/10 12:39:46;;;;;;;1.98;0.30;;;21.00;85.20;;;;;;5093787;28;20467;-77
2022/07/10 12:42:14;;;;;;;1.90;0.20;;;21.00;84.80;;;;;;5093908;28;20043;-77
2022/07/10 12:44:42;;;;;;;6.63;0.40;;;21.10;84.60;;;;;;5093416;28;20099;-77
2022/07/10 12:47:12;;;;;;;4.40;0.30;;;21.10;84.20;;;;;;5093866;28;20039;-77
2022/07/10 12:49:57;;;;;;;1.33;0.68;;;21.20;83.90;;;;;;5093521;28;20123;-77
2022/07/10 12:52:31;;;;;;;2.33;0.30;;;21.30;83.00;;;;;;5094292;28;20077;-77
2022/07/10 12:55:25;;;;;;;2.63;0.30;;;21.30;82.70;;;;;;5093632;28;20489;-77
2022/07/10 12:57:55;;;;;;;;;;;21.30;82.40;;;;;;5094389;28;20024;-77
2022/07/10 13:00:29;;;;;;;3.20;0.30;;;21.40;82.20;;;;;;5104291;28;19931;-76
2022/07/10 13:03:03;;;;;;;1.58;0.25;;;21.50;82.10;;;;;;5102746;28;20444;-76